Terminal Aerodrome Forecast
Issued by NWS

Home | Current Version | Previous Version | Graphics & Text | Print | Product List | Glossary On
Versions: 1 2 3 4 5 6 7 8 9 10 11 12 13 14 15 16 17 18 19 20 21 22 23 24 25 26 27 28 29 30 31 32 33 34 35 36 37 38 39 40 41 42 43 44 45 46 47 48 49 50
000
FTUS43 KLOT 271900 AAA
TAFGYY
TAF AMD
KGYY 271956Z 2720/2818 30013G18KT P6SM -SHSN BKN025 OVC035
      TEMPO 2721/2722 SCT025
     FM272200 31010G16KT P6SM SCT025 BKN035
      TEMPO 2722/2724 BKN030
     FM281100 20005KT P6SM OVC050 PROB30 2812/2815 2SM -SN OVC030
     FM281600 18013G21KT P6SM BKN080=

USA.gov is the U.S. government's official web portal to all federal, state and local government web resources and services.